createdAt,value
2019-03-08T00:01:12.232Z,5.07
2019-03-08T00:03:40.767Z,3.87
2019-03-08T00:06:28.647Z,4.03
2019-03-08T00:09:16.566Z,4.73
2019-03-08T00:11:57.629Z,3.50
2019-03-08T00:14:40.231Z,3.73
2019-03-08T00:17:08.751Z,3.70
2019-03-08T00:19:56.645Z,3.73
2019-03-08T00:22:44.605Z,3.53
2019-03-08T00:25:25.522Z,3.40
2019-03-08T00:28:06.502Z,3.00
2019-03-08T00:30:47.415Z,3.07
2019-03-08T00:33:15.952Z,2.93
2019-03-08T00:36:03.835Z,2.93
2019-03-08T00:38:45.064Z,3.77
2019-03-08T00:41:13.598Z,2.60
2019-03-08T00:44:01.472Z,3.30
2019-03-08T00:46:49.561Z,3.17
2019-03-08T00:49:37.418Z,3.20
2019-03-08T00:52:18.232Z,3.07
2019-03-08T00:54:59.218Z,3.17
2019-03-08T00:57:40.257Z,3.27
2019-03-08T01:00:22.864Z,2.63
2019-03-08T01:03:03.802Z,3.60
2019-03-08T01:05:44.786Z,3.07
2019-03-08T01:08:25.473Z,3.30
2019-03-08T01:11:06.254Z,3.73
2019-03-08T01:13:46.824Z,2.47
2019-03-08T01:16:15.416Z,3.10
2019-03-08T01:19:03.231Z,3.20
2019-03-08T01:21:31.773Z,3.30
2019-03-08T01:24:19.654Z,2.83
2019-03-08T01:26:48.127Z,4.00
2019-03-08T01:29:35.998Z,3.10
2019-03-08T01:32:16.354Z,3.30
2019-03-08T01:34:44.961Z,3.17
2019-03-08T01:37:32.820Z,2.70
2019-03-08T01:40:13.482Z,3.17
2019-03-08T01:42:54.162Z,2.13
2019-03-08T01:45:34.840Z,2.00
2019-03-08T01:48:15.962Z,2.57
2019-03-08T01:50:44.491Z,2.13
2019-03-08T01:53:32.342Z,1.83
2019-03-08T01:56:20.214Z,2.10
2019-03-08T01:59:01.264Z,2.17
2019-03-08T02:01:29.876Z,1.60
2019-03-08T02:04:18.105Z,1.70
2019-03-08T02:06:56.548Z,1.90
2019-03-08T02:12:35.619Z,2.40
2019-03-08T02:15:16.449Z,2.00
2019-03-08T02:17:57.281Z,1.70
2019-03-08T02:20:38.026Z,2.10
2019-03-08T02:23:18.460Z,2.07
2019-03-08T02:25:59.449Z,1.70
2019-03-08T02:28:40.148Z,2.50
2019-03-08T02:31:20.962Z,2.33
2019-03-08T02:33:49.728Z,2.87
2019-03-08T02:36:37.541Z,2.17
2019-03-08T02:39:25.418Z,2.30
2019-03-08T02:42:07.749Z,2.10
2019-03-08T02:44:48.693Z,1.97
2019-03-08T02:47:29.124Z,2.13
2019-03-08T02:50:10.199Z,2.10
2019-03-08T02:52:51.223Z,2.43
2019-03-08T02:55:31.712Z,1.80
2019-03-08T02:58:00.236Z,2.17
2019-03-08T03:00:48.105Z,2.23
2019-03-08T03:03:36.268Z,2.37
2019-03-08T03:06:16.980Z,2.10
2019-03-08T03:08:58.334Z,3.87
2019-03-08T03:11:38.978Z,2.90
2019-03-08T03:14:20.063Z,3.00
2019-03-08T03:17:00.925Z,2.70
2019-03-08T03:19:42.063Z,2.87
2019-03-08T03:22:22.948Z,3.30
2019-03-08T03:25:03.873Z,3.40
2019-03-08T03:27:44.524Z,3.53
2019-03-08T03:30:25.430Z,4.33
2019-03-08T03:33:06.636Z,2.87
2019-03-08T03:35:47.337Z,3.30
2019-03-08T03:38:28.402Z,3.27
2019-03-08T03:41:09.002Z,3.90
2019-03-08T03:43:49.731Z,3.77
2019-03-08T03:46:31.069Z,3.73
2019-03-08T03:49:11.884Z,3.83
2019-03-08T03:51:52.698Z,3.47
2019-03-08T03:54:33.682Z,3.57
2019-03-08T03:57:14.664Z,3.70
2019-03-08T03:59:55.149Z,4.20
2019-03-08T04:02:36.246Z,3.93
2019-03-08T04:05:17.469Z,4.03
2019-03-08T04:07:58.377Z,4.30
2019-03-08T04:10:39.113Z,4.60
2019-03-08T04:13:20.151Z,4.83
2019-03-08T04:16:00.930Z,4.77
2019-03-08T04:18:41.629Z,3.80
2019-03-08T04:21:22.163Z,3.83
2019-03-08T04:24:03.048Z,4.33
2019-03-08T04:26:43.700Z,4.40
2019-03-08T04:29:24.539Z,4.80
2019-03-08T04:32:05.533Z,3.87
2019-03-08T04:34:34.067Z,4.20
2019-03-08T04:37:21.939Z,4.30
2019-03-08T04:40:02.112Z,4.80
2019-03-08T04:42:42.600Z,4.57
2019-03-08T04:45:23.544Z,3.73
2019-03-08T04:48:04.200Z,4.77
2019-03-08T04:50:44.971Z,4.60
2019-03-08T04:53:13.775Z,5.67
2019-03-08T04:56:01.682Z,5.70
2019-03-08T04:58:42.381Z,4.77
2019-03-08T05:01:23.202Z,4.63
2019-03-08T05:04:04.145Z,4.93
2019-03-08T05:06:45.032Z,5.10
2019-03-08T05:09:25.583Z,4.63
2019-03-08T05:12:06.426Z,4.23
2019-03-08T05:14:46.972Z,4.43
2019-03-08T05:17:27.696Z,5.33
2019-03-08T05:20:08.435Z,5.20
2019-03-08T05:22:49.328Z,3.87
2019-03-08T05:25:30.024Z,4.30
2019-03-08T05:28:10.910Z,6.23
2019-03-08T05:30:51.798Z,5.10
2019-03-08T05:33:32.795Z,5.03
2019-03-08T05:36:13.417Z,4.27
2019-03-08T05:38:54.294Z,3.87
2019-03-08T05:41:35.968Z,4.07
2019-03-08T05:44:04.503Z,5.13
2019-03-08T05:46:52.366Z,3.90
2019-03-08T05:49:33.681Z,3.83
2019-03-08T05:52:14.357Z,4.60
2019-03-08T05:54:55.001Z,4.83
2019-03-08T05:57:35.506Z,3.83
2019-03-08T06:00:17.984Z,5.67
2019-03-08T06:02:58.788Z,4.43
2019-03-08T06:05:39.426Z,4.63
2019-03-08T06:08:20.563Z,4.53
2019-03-08T06:11:01.504Z,5.57
2019-03-08T06:13:42.390Z,4.73
2019-03-08T06:16:23.058Z,4.60
2019-03-08T06:19:03.854Z,4.97
2019-03-08T06:21:44.711Z,5.03
2019-03-08T06:24:25.266Z,4.63
2019-03-08T06:27:06.126Z,4.50
2019-03-08T06:29:47.119Z,5.30
2019-03-08T06:32:28.078Z,4.27
2019-03-08T06:35:08.772Z,4.63
2019-03-08T06:37:49.720Z,4.33
2019-03-08T06:40:30.478Z,5.03
2019-03-08T06:43:11.050Z,5.20
2019-03-08T06:45:52.007Z,5.00
2019-03-08T06:48:20.511Z,5.53
2019-03-08T06:51:08.325Z,4.03
2019-03-08T06:53:48.998Z,4.90
2019-03-08T06:56:29.604Z,4.40
2019-03-08T06:59:11.976Z,4.40
2019-03-08T07:01:53.073Z,3.80
2019-03-08T07:04:33.573Z,3.60
2019-03-08T07:07:14.275Z,4.93
2019-03-08T07:09:55.388Z,4.67
2019-03-08T07:12:36.244Z,4.30
2019-03-08T07:15:17.147Z,4.77
2019-03-08T07:17:57.997Z,4.30
2019-03-08T07:20:58.221Z,4.67
2019-03-08T07:27:05.209Z,4.27
2019-03-08T07:32:54.778Z,5.83
2019-03-08T07:35:55.104Z,5.33
2019-03-08T07:38:54.491Z,4.53
2019-03-08T07:41:39.394Z,3.87
2019-03-08T07:44:39.026Z,4.37
2019-03-08T07:47:24.107Z,4.47
2019-03-08T07:50:09.667Z,3.30
2019-03-08T07:52:57.392Z,3.80
2019-03-08T07:56:06.293Z,3.80
2019-03-08T07:59:06.513Z,3.97
2019-03-08T08:01:51.499Z,3.40
2019-03-08T08:04:51.697Z,4.33
2019-03-08T08:07:37.431Z,4.60
2019-03-08T08:16:19.592Z,4.10
2019-03-08T08:19:04.988Z,3.33
2019-03-08T08:22:05.359Z,3.60
2019-03-08T08:27:54.562Z,3.67
2019-03-08T08:30:36.932Z,3.07
2019-03-08T08:33:20.010Z,3.90
2019-03-08T08:36:08.022Z,3.87
2019-03-08T08:41:59.266Z,3.37
2019-03-08T08:44:41.887Z,3.60
2019-03-08T08:47:29.636Z,3.23
2019-03-08T08:50:36.725Z,3.73
2019-03-08T08:53:36.959Z,4.10
2019-03-08T08:56:19.100Z,3.30
2019-03-08T08:59:04.521Z,4.60
2019-03-08T09:01:50.756Z,3.23
2019-03-08T09:04:38.488Z,3.90
2019-03-08T09:07:20.948Z,3.47
2019-03-08T09:10:05.578Z,3.30
2019-03-08T09:12:50.271Z,3.57
2019-03-08T09:15:49.877Z,3.40
2019-03-08T09:18:32.674Z,2.37
2019-03-08T09:21:20.526Z,4.30
2019-03-08T09:27:00.869Z,4.20
2019-03-08T09:29:48.587Z,3.30
2019-03-08T09:32:59.209Z,3.20
2019-03-08T09:35:39.834Z,3.00
2019-03-08T09:38:40.164Z,2.90
2019-03-08T09:41:39.865Z,2.93
2019-03-08T09:44:24.908Z,3.37
2019-03-08T09:47:24.902Z,3.13
2019-03-08T09:50:25.072Z,3.27
2019-03-08T09:53:25.517Z,2.83
2019-03-08T09:56:08.576Z,3.30
2019-03-08T09:58:49.077Z,3.73
2019-03-08T10:01:36.936Z,3.07
2019-03-08T10:04:36.966Z,2.70
2019-03-08T10:07:19.765Z,2.37
2019-03-08T10:10:02.517Z,3.00
2019-03-08T10:13:02.817Z,3.00
2019-03-08T10:15:50.588Z,3.50
2019-03-08T10:18:57.663Z,2.40
2019-03-08T10:21:45.382Z,2.40
2019-03-08T10:24:52.466Z,2.50
2019-03-08T10:27:52.763Z,2.20
2019-03-08T10:30:37.877Z,2.37
2019-03-08T10:33:46.299Z,2.50
2019-03-08T10:36:39.422Z,3.10
2019-03-08T10:39:24.353Z,2.17
2019-03-08T10:42:07.018Z,2.40
2019-03-08T10:44:52.622Z,2.10
2019-03-08T10:50:48.990Z,3.00
2019-03-08T10:59:27.746Z,2.30
2019-03-08T11:02:11.412Z,2.60
2019-03-08T11:04:59.273Z,2.87
2019-03-08T11:10:55.544Z,2.83
2019-03-08T11:14:02.641Z,2.60
2019-03-08T11:16:44.642Z,2.87
2019-03-08T11:19:32.364Z,2.40
2019-03-08T11:22:39.459Z,2.30
2019-03-08T11:25:22.012Z,2.70
2019-03-08T11:28:07.513Z,2.40
2019-03-08T11:30:54.232Z,2.07
2019-03-08T11:33:36.926Z,2.60
2019-03-08T11:36:37.023Z,2.43
2019-03-08T11:39:36.716Z,2.00
2019-03-08T11:42:37.237Z,2.20
2019-03-08T11:45:37.597Z,1.90
2019-03-08T11:48:20.249Z,1.93
2019-03-08T11:51:02.972Z,2.00
2019-03-08T11:53:45.699Z,1.83
2019-03-08T11:56:46.083Z,2.60
2019-03-08T11:59:34.072Z,2.10
2019-03-08T12:02:41.361Z,1.53
2019-03-08T12:11:30.201Z,1.50
2019-03-08T12:14:12.096Z,2.47
2019-03-08T12:17:12.485Z,2.13
2019-03-08T12:19:57.980Z,1.63
2019-03-08T12:22:45.723Z,1.70
2019-03-08T12:28:54.400Z,2.10
2019-03-08T12:31:36.426Z,2.47
2019-03-08T12:34:21.235Z,1.60
2019-03-08T12:37:21.468Z,1.73
2019-03-08T12:40:02.014Z,1.80
2019-03-08T12:43:09.087Z,1.57
2019-03-08T12:46:08.827Z,1.40
2019-03-08T12:48:50.961Z,1.20
2019-03-08T12:51:51.185Z,1.17
2019-03-08T12:54:50.865Z,1.77
2019-03-08T12:57:33.023Z,1.60
2019-03-08T13:00:15.777Z,1.50
2019-03-08T13:03:16.101Z,1.23
2019-03-08T13:12:07.468Z,1.20
2019-03-08T13:14:48.155Z,1.27
2019-03-08T13:17:28.802Z,1.17
2019-03-08T13:20:09.552Z,1.53
2019-03-08T13:22:51.916Z,1.20
2019-03-08T13:25:33.553Z,1.60
2019-03-08T13:28:14.630Z,1.10
2019-03-08T13:30:55.418Z,2.30
2019-03-08T13:33:36.285Z,1.70
2019-03-08T13:36:16.813Z,1.80
2019-03-08T13:41:40.264Z,1.70
2019-03-08T13:44:28.127Z,1.90
2019-03-08T13:47:10.849Z,2.20
2019-03-08T13:49:51.647Z,1.73
2019-03-08T13:52:32.241Z,2.13
2019-03-08T13:55:13.082Z,1.70
2019-03-08T13:57:53.503Z,1.90
2019-03-08T14:00:33.973Z,2.00
2019-03-08T14:03:14.601Z,1.93
2019-03-08T14:05:55.236Z,1.63
2019-03-08T14:08:35.656Z,1.50
2019-03-08T14:11:04.588Z,1.60
2019-03-08T14:13:52.398Z,1.60
2019-03-08T14:16:40.269Z,2.03
2019-03-08T14:19:21.204Z,1.87
2019-03-08T14:22:02.231Z,1.90
2019-03-08T14:24:30.789Z,2.00
2019-03-08T14:27:18.658Z,1.93
2019-03-08T14:33:01.568Z,2.27
2019-03-08T14:35:40.592Z,1.80
2019-03-08T14:38:21.105Z,1.87
2019-03-08T14:41:08.842Z,1.70
2019-03-08T14:46:59.965Z,2.03
2019-03-08T14:49:40.959Z,1.73
2019-03-08T14:52:22.609Z,2.47
2019-03-08T14:55:03.896Z,2.67
2019-03-08T14:57:44.484Z,3.27
2019-03-08T15:00:28.622Z,4.43
2019-03-08T15:03:05.756Z,3.47
2019-03-08T15:05:34.292Z,3.60
2019-03-08T15:08:17.873Z,4.40
2019-03-08T15:10:59.112Z,4.10
2019-03-08T15:13:39.926Z,4.53
2019-03-08T15:16:20.571Z,4.47
2019-03-08T15:19:03.774Z,5.70
2019-03-08T15:21:48.427Z,5.03
2019-03-08T15:24:26.783Z,5.07
2019-03-08T15:27:07.633Z,4.67
2019-03-08T15:29:54.426Z,4.60
2019-03-08T15:32:30.509Z,4.90
2019-03-08T15:35:11.438Z,4.60
2019-03-08T15:37:52.138Z,4.60
2019-03-08T15:40:33.543Z,4.53
2019-03-08T15:43:14.888Z,4.73
2019-03-08T15:45:55.972Z,5.47
2019-03-08T15:48:36.783Z,5.07
2019-03-08T15:51:20.920Z,5.80
2019-03-08T15:53:59.996Z,6.33
2019-03-08T15:56:40.663Z,5.80
2019-03-08T15:59:21.510Z,6.67
2019-03-08T16:02:06.203Z,6.73
2019-03-08T16:04:45.929Z,6.43
2019-03-08T16:07:27.345Z,6.47
2019-03-08T16:10:07.773Z,7.00
2019-03-08T16:12:48.593Z,7.00
2019-03-08T16:15:29.715Z,6.80
2019-03-08T16:18:10.326Z,6.67
2019-03-08T16:20:51.041Z,6.80
2019-03-08T16:23:31.484Z,6.60
2019-03-08T16:26:12.097Z,6.60
2019-03-08T16:28:53.201Z,6.50
2019-03-08T16:34:27.407Z,6.57
2019-03-08T16:37:09.988Z,6.87
2019-03-08T16:39:55.358Z,6.63
2019-03-08T16:42:41.028Z,6.00
2019-03-08T16:45:41.362Z,6.00
2019-03-08T16:48:26.964Z,6.33
2019-03-08T16:51:30.263Z,5.47
2019-03-08T16:54:28.749Z,5.63
2019-03-08T16:57:28.303Z,5.17
2019-03-08T17:00:13.855Z,4.80
2019-03-08T17:02:59.698Z,5.37
2019-03-08T17:05:59.973Z,5.23
2019-03-08T17:08:45.434Z,4.23
2019-03-08T17:11:28.043Z,4.87
2019-03-08T17:17:35.902Z,3.33
2019-03-08T17:20:18.529Z,4.47
2019-03-08T17:25:54.594Z,4.23
2019-03-08T17:28:40.009Z,3.83
2019-03-08T17:31:22.444Z,4.10
2019-03-08T17:34:22.842Z,3.93
2019-03-08T17:37:23.269Z,4.13
2019-03-08T17:40:06.233Z,4.30
2019-03-08T17:43:06.497Z,4.43
2019-03-08T17:48:56.480Z,3.90
2019-03-08T17:54:46.363Z,4.40
2019-03-08T17:57:29.013Z,4.30
2019-03-08T18:00:14.465Z,4.57
2019-03-08T18:03:14.138Z,4.10
2019-03-08T18:06:13.628Z,3.90
2019-03-08T18:08:55.576Z,4.53
2019-03-08T18:11:56.218Z,5.10
2019-03-08T18:14:56.335Z,4.70
2019-03-08T18:17:41.765Z,4.10
2019-03-08T18:20:23.748Z,4.00
2019-03-08T18:23:06.384Z,4.10
2019-03-08T18:25:52.056Z,4.53
2019-03-08T18:28:37.731Z,4.43
2019-03-08T18:31:20.205Z,4.77
2019-03-08T18:34:03.072Z,3.80
2019-03-08T18:36:48.597Z,4.10
2019-03-08T18:39:48.883Z,3.93
2019-03-08T18:42:31.667Z,3.07
2019-03-08T18:45:13.891Z,3.03
2019-03-08T18:48:14.356Z,2.60
2019-03-08T18:50:59.179Z,2.40
2019-03-08T18:53:59.697Z,3.10
2019-03-08T18:56:42.482Z,2.90
2019-03-08T18:59:25.030Z,2.70
2019-03-08T19:02:25.400Z,2.20
2019-03-08T19:05:25.204Z,3.83
2019-03-08T19:08:25.365Z,3.40
2019-03-08T19:14:14.748Z,3.10
2019-03-08T19:20:10.953Z,2.73
2019-03-08T19:26:07.219Z,2.93
2019-03-08T19:34:57.300Z,2.73
2019-03-08T19:40:52.022Z,3.10
2019-03-08T19:43:52.358Z,3.03
2019-03-08T19:46:37.513Z,2.70
2019-03-08T19:49:22.913Z,2.93
2019-03-08T19:52:22.465Z,2.60
2019-03-08T19:58:17.215Z,2.17
2019-03-08T20:04:13.441Z,3.23
2019-03-08T20:07:01.174Z,2.30
2019-03-08T20:10:08.197Z,3.23
2019-03-08T20:12:55.872Z,2.63
2019-03-08T20:18:33.530Z,1.90
2019-03-08T20:21:16.164Z,2.60
2019-03-08T20:24:16.537Z,2.50
2019-03-08T20:27:16.088Z,3.23
2019-03-08T20:30:15.742Z,2.63
2019-03-08T20:33:15.496Z,3.20
2019-03-08T20:36:14.879Z,2.70
2019-03-08T20:41:56.330Z,2.60
2019-03-08T20:45:03.578Z,2.77
2019-03-08T20:47:43.942Z,2.47
2019-03-08T20:50:24.553Z,2.73
2019-03-08T20:53:05.520Z,2.20
2019-03-08T20:55:33.962Z,2.03
2019-03-08T20:58:21.847Z,2.57
2019-03-08T21:01:09.700Z,2.87
2019-03-08T21:03:39.963Z,2.50
2019-03-08T21:06:27.772Z,2.50
2019-03-08T21:08:56.239Z,2.80
2019-03-08T21:11:44.115Z,3.43
2019-03-08T21:14:12.559Z,2.40
2019-03-08T21:17:00.605Z,2.63
2019-03-08T21:19:48.436Z,2.43
2019-03-08T21:22:28.761Z,2.80
2019-03-08T21:25:09.732Z,2.80
2019-03-08T21:27:50.874Z,2.10
2019-03-08T21:30:31.730Z,2.47
2019-03-08T21:33:12.380Z,3.00
2019-03-08T21:35:53.040Z,3.00
2019-03-08T21:38:34.004Z,3.33
2019-03-08T21:41:14.819Z,3.30
2019-03-08T21:43:55.752Z,3.20
2019-03-08T21:46:25.165Z,3.30
2019-03-08T21:49:12.972Z,3.10
2019-03-08T21:51:54.166Z,3.90
2019-03-08T21:54:35.347Z,2.83
2019-03-08T21:57:03.956Z,2.83
2019-03-08T22:00:12.530Z,3.93
2019-03-08T22:03:00.561Z,4.03
2019-03-08T22:05:42.689Z,3.63
2019-03-08T22:08:23.674Z,4.30
2019-03-08T22:11:05.921Z,3.23
2019-03-08T22:13:47.083Z,4.10
2019-03-08T22:16:15.665Z,4.20
2019-03-08T22:19:03.722Z,4.00
2019-03-08T22:24:43.637Z,3.67
2019-03-08T22:27:24.353Z,4.30
2019-03-08T22:30:05.587Z,3.63
2019-03-08T22:32:46.054Z,3.60
2019-03-08T22:35:28.273Z,4.27
2019-03-08T22:38:08.751Z,3.67
2019-03-08T22:40:49.207Z,3.20
2019-03-08T22:43:17.673Z,4.40
2019-03-08T22:46:05.479Z,4.10
2019-03-08T22:48:53.414Z,3.70
2019-03-08T22:51:34.162Z,3.97
2019-03-08T22:54:15.195Z,3.40
2019-03-08T22:56:55.843Z,3.90
2019-03-08T22:59:24.947Z,4.37
2019-03-08T23:02:13.172Z,3.83
2019-03-08T23:05:02.937Z,3.63
2019-03-08T23:07:43.490Z,3.87
2019-03-08T23:10:24.249Z,4.07
2019-03-08T23:13:05.256Z,3.30
2019-03-08T23:15:45.928Z,4.70
2019-03-08T23:18:26.937Z,3.80
2019-03-08T23:21:07.522Z,4.10
2019-03-08T23:23:36.425Z,2.77
2019-03-08T23:26:24.310Z,3.67
2019-03-08T23:29:10.561Z,3.73
2019-03-08T23:31:55.949Z,4.10
2019-03-08T23:34:24.487Z,3.10
2019-03-08T23:37:12.305Z,3.37
2019-03-08T23:39:40.824Z,3.40
2019-03-08T23:42:28.683Z,3.50
2019-03-08T23:45:09.713Z,3.27
2019-03-08T23:47:50.604Z,3.37
2019-03-08T23:50:31.633Z,3.27
2019-03-08T23:53:12.246Z,3.10
2019-03-08T23:55:53.413Z,3.00
2019-03-08T23:58:34.193Z,3.37
